Gilleleje Airstrip

DK-0037 · Capital Region, 丹麦

使用的METAR站距离机场39 km。
罗盘
风向 的 风向 170° Gilleleje Airstrip 15/33
风: 9 kt, 3 beaufort

9 kt

3 kt
改变
0 ft 1.000 2.000 3.000 4.000 5.000
Cloud Cloud Cloud Cloud
SCT 4.000
Cloud Cloud Cloud Cloud Cloud Cloud
BKN 5.000
METAR ESTA 231650Z 17009KT 9999 SCT040 BKN050 06/01 Q0994

METAR Gilleleje Airstrip - DK-0037

Gilleleje Airstrip是,丹麦中的小机场。 该机场位于纬度56,10630和经度12,32341。 该机场有一条跑道: 15/33. 这个机场没有ICAO代码,我们使用DK-0037作为参考。 机场在Sweden FIR中。

该航空气象观测是针对Ängelholm-Helsingborg Airport在2024年2月23日 17:50, 当地时间进行的。

机场观察

风向为170°,速度为9 kt。

可见度为10 km 或者更多。

有疏云,零星散落的云朵在4.000 ft的高度 和 碎云在5.000 ft的高度。 破损或更高的上限为5.000 ft。

温度为6 °C,阵风为1 °C。 露点为1 °C,相对湿度为71%。 海平面上的气压为994 hPa (QNH)。

白天

今天,太阳从07:18升起,在17:30降落。 这适用于Gilleleje Airstrip,世界夏令时可能有所不同。 当地时间与世界标准时间之间的时差为+1 小时。 当前,没有夏令时有效。

公司介绍

我们没有关于这个机场的公司信息。

体会

到Vliegles.nl去找飞行课程,跳伞和其他飞行体验。 浏览页面,了解Gilleleje Airstrip附近所有可用的活动。 你也可以使用搜索功能来寻找你所在地附近的特定飞行课程、跳伞或其他飞行体验。

跑道

Id 标题 侧风 逆风 侧风 %
15/33 153°-333° 3 kt 9 kt 29 %

逆风成分最大的方向会被突出显示,并用于横风计算。 这并不一定意味着这个方向在使用。

乌云

4.000 ft SCT 疏云,零星散落的云朵
5.000 ft BKN 碎云

温度 & 天气

温度 6 °C
露点 1 °C
相对湿度 71%
风寒 1 °C
Kp-index 0 (0-9)

白天

日出
07:16 (12:55)
中午
12:21
日落
17:27

小工具

你想在你的网站上有一个关于Gilleleje Airstrip的当前航空天气(METAR)的小部件吗?

显示HTML代码
?>